CCGS Cape Naden — CFN5482 — position and weather

sailwx.info

Track history (hours):
 
Tides and Currents Weather Stations Pressure Air Temp Water Temp Dewpoint Dewpoint Depression Visibility Wind Speed Wind Dir Waves Ship Positions

CCGS Cape Naden

Last reported at 2014-Sep-17 12:22 UTC. Time now 2014-Sep-17 17:40 UTC.
Position N 48°51' W 123°30'.

Length 15 m; draft 0.8 m.

Type: SAR. MMSI: 316017162.

Date/timePositionNaut miles runAvg speedWind from/ knotsBaromVisibWave heightAir tempDewpointWater temp
2014-Sep-17 12:22N 48°51' W 123°30'0 0.0
2014-Sep-17 05:31N 48°51' W 123°30'0 0.0
2014-Sep-17 04:30N 48°51' W 123°30'0 0.0
2014-Sep-17 03:21N 48°51' W 123°30'7 0.2
2014-Sep-15 20:29N 48°47' W 123°22'7 0.2
2014-Sep-14 06:14N 48°51' W 123°30'0 0.0
2014-Sep-14 05:33N 48°51' W 123°30'0 0.0
2014-Sep-14 03:29N 48°51' W 123°30'0 0.0
2014-Sep-14 01:14N 48°51' W 123°30'0 0.0
2014-Sep-13 20:20N 48°51' W 123°30'8 0.3
2014-Sep-12 21:18N 48°46' W 123°22'8 0.8
2014-Sep-12 11:21N 48°51' W 123°30'7 0.4
2014-Sep-11 19:30N 48°51' W 123°20'7 5.2
2014-Sep-11 18:13N 48°51' W 123°30'0 0.0
2014-Sep-11 16:17N 48°51' W 123°30'0 0.0
2014-Sep-11 14:21N 48°51' W 123°30'0 0.0
2014-Sep-11 13:26N 48°51' W 123°30'0 0.0
2014-Sep-11 12:17N 48°51' W 123°30'0 0.0
2014-Sep-11 11:23N 48°51' W 123°30'0 0.0
2014-Sep-11 10:28N 48°51' W 123°30'0 0.0
2014-Sep-11 09:05N 48°51' W 123°30'0 0.0
2014-Sep-11 07:33N 48°51' W 123°30'0 0.0
2014-Sep-11 06:32N 48°51' W 123°30'0 0.0
2014-Sep-11 05:32N 48°51' W 123°30'0 0.0
2014-Sep-11 04:07N 48°51' W 123°30'0 0.0
2014-Sep-11 03:30N 48°51' W 123°30'0 0.0
2014-Sep-11 02:33N 48°51' W 123°30'0 0.0
2014-Sep-11 01:32N 48°51' W 123°30'0 0.0
2014-Sep-11 00:31N 48°51' W 123°30'0 0.0
2014-Sep-10 22:16N 48°51' W 123°30'0 0.0
2014-Sep-10 20:31N 48°51' W 123°30'0 0.0
2014-Sep-10 18:21N 48°51' W 123°30'0 0.0
2014-Sep-10 13:25N 48°51' W 123°30'0 0.0
2014-Sep-10 12:32N 48°51' W 123°30'0 0.0
2014-Sep-10 11:05N 48°51' W 123°30'0 0.0
2014-Sep-10 10:29N 48°51' W 123°30'0 0.0
2014-Sep-10 09:23N 48°51' W 123°30'0 0.0
2014-Sep-10 08:32N 48°51' W 123°30'0 0.0
2014-Sep-10 07:31N 48°51' W 123°30'0 0.0
2014-Sep-10 06:10N 48°51' W 123°30'0 0.0
2014-Sep-10 05:16N 48°51' W 123°30'0 0.0
2014-Sep-10 04:24N 48°51' W 123°30'0 0.0
2014-Sep-10 02:31N 48°51' W 123°30'0 0.0
2014-Sep-10 01:33N 48°51' W 123°30'0 0.0
2014-Sep-10 00:30N 48°51' W 123°30'0 0.0
2014-Sep-09 23:29N 48°51' W 123°30'0 0.0
2014-Sep-09 22:31N 48°51' W 123°30'0 0.0
2014-Sep-09 21:29N 48°51' W 123°30'0 0.0
2014-Sep-09 20:26N 48°51' W 123°30'0 0.0
2014-Sep-09 19:30N 48°51' W 123°30'0 0.0
2014-Sep-09 16:27N 48°51' W 123°30'0 0.0
2014-Sep-09 15:28N 48°51' W 123°30'0 0.0
2014-Sep-09 14:33N 48°51' W 123°30'0 0.0
2014-Sep-09 13:33N 48°51' W 123°30'0 0.0
2014-Sep-09 12:31N 48°51' W 123°30'0 0.0
2014-Sep-09 11:33N 48°51' W 123°30'0 0.0
2014-Sep-09 10:30N 48°51' W 123°30'0 0.0
2014-Sep-09 09:33N 48°51' W 123°30'0 0.0
2014-Sep-09 08:33N 48°51' W 123°30'0 0.0
2014-Sep-09 07:30N 48°51' W 123°30'0 0.0
2014-Sep-09 06:31N 48°51' W 123°30'0 0.0
2014-Sep-09 05:20N 48°51' W 123°30'0 0.0
2014-Sep-09 04:26N 48°51' W 123°30'0 0.0
2014-Sep-09 03:32N 48°51' W 123°30'0 0.0
2014-Sep-09 02:31N 48°51' W 123°30'0 0.0
2014-Sep-09 01:28N 48°51' W 123°30'0 0.0
2014-Sep-09 00:33N 48°51' W 123°30'0 0.0
2014-Sep-08 23:33N 48°51' W 123°30'0 0.0
2014-Sep-08 22:32N 48°51' W 123°30'0 0.0
2014-Sep-08 18:25N 48°51' W 123°30'0 0.0
2014-Sep-08 13:21N 48°51' W 123°30'0 0.0
2014-Sep-08 12:31N 48°51' W 123°30'0 0.0
2014-Sep-08 08:31N 48°51' W 123°30'0 0.0
2014-Sep-08 07:33N 48°51' W 123°30'0 0.0
2014-Sep-08 02:33N 48°51' W 123°30'0 0.0
2014-Sep-08 01:22N 48°51' W 123°30'0 0.0
2014-Sep-08 00:31N 48°51' W 123°30'6 6.4
2014-Sep-07 23:33N 48°47' W 123°23'9 7.4
2014-Sep-07 22:21N 48°48' W 123°36'5 1.0
2014-Sep-07 17:09N 48°51' W 123°30'0 0.0
2014-Sep-07 14:17N 48°51' W 123°30'0 0.0
2014-Sep-07 13:30N 48°51' W 123°30'0 0.0
2014-Sep-07 12:31N 48°51' W 123°30'  
Track history (hours):
 
Tides and Currents Weather Stations Pressure Air Temp Water Temp Dewpoint Dewpoint Depression Visibility Wind Speed Wind Dir Waves Ship Positions

CCGS Cape Naden

Last reported at 2014-Sep-17 12:22 UTC. Time now 2014-Sep-17 17:40 UTC.
Position N 48°51' W 123°30'.

Length 15 m; draft 0.8 m.

Type: SAR. MMSI: 316017162.

Date/timePositionNaut miles runAvg speedWind from/ knotsBaromVisibWave heightAir tempDewpointWater temp
2014-Sep-17 12:22N 48°51' W 123°30'0 0.0
2014-Sep-17 05:31N 48°51' W 123°30'0 0.0
2014-Sep-17 04:30N 48°51' W 123°30'0 0.0
2014-Sep-17 03:21N 48°51' W 123°30'7 0.2
2014-Sep-15 20:29N 48°47' W 123°22'7 0.2
2014-Sep-14 06:14N 48°51' W 123°30'0 0.0
2014-Sep-14 05:33N 48°51' W 123°30'0 0.0
2014-Sep-14 03:29N 48°51' W 123°30'0 0.0
2014-Sep-14 01:14N 48°51' W 123°30'0 0.0
2014-Sep-13 20:20N 48°51' W 123°30'8 0.3
2014-Sep-12 21:18N 48°46' W 123°22'8 0.8
2014-Sep-12 11:21N 48°51' W 123°30'7 0.4
2014-Sep-11 19:30N 48°51' W 123°20'7 5.2
2014-Sep-11 18:13N 48°51' W 123°30'0 0.0
2014-Sep-11 16:17N 48°51' W 123°30'0 0.0
2014-Sep-11 14:21N 48°51' W 123°30'0 0.0
2014-Sep-11 13:26N 48°51' W 123°30'0 0.0
2014-Sep-11 12:17N 48°51' W 123°30'0 0.0
2014-Sep-11 11:23N 48°51' W 123°30'0 0.0
2014-Sep-11 10:28N 48°51' W 123°30'0 0.0
2014-Sep-11 09:05N 48°51' W 123°30'0 0.0
2014-Sep-11 07:33N 48°51' W 123°30'0 0.0
2014-Sep-11 06:32N 48°51' W 123°30'0 0.0
2014-Sep-11 05:32N 48°51' W 123°30'0 0.0
2014-Sep-11 04:07N 48°51' W 123°30'0 0.0
2014-Sep-11 03:30N 48°51' W 123°30'0 0.0
2014-Sep-11 02:33N 48°51' W 123°30'0 0.0
2014-Sep-11 01:32N 48°51' W 123°30'0 0.0
2014-Sep-11 00:31N 48°51' W 123°30'0 0.0
2014-Sep-10 22:16N 48°51' W 123°30'0 0.0
2014-Sep-10 20:31N 48°51' W 123°30'0 0.0
2014-Sep-10 18:21N 48°51' W 123°30'0 0.0
2014-Sep-10 13:25N 48°51' W 123°30'0 0.0
2014-Sep-10 12:32N 48°51' W 123°30'0 0.0
2014-Sep-10 11:05N 48°51' W 123°30'0 0.0
2014-Sep-10 10:29N 48°51' W 123°30'0 0.0
2014-Sep-10 09:23N 48°51' W 123°30'0 0.0
2014-Sep-10 08:32N 48°51' W 123°30'0 0.0
2014-Sep-10 07:31N 48°51' W 123°30'0 0.0
2014-Sep-10 06:10N 48°51' W 123°30'0 0.0
2014-Sep-10 05:16N 48°51' W 123°30'0 0.0
2014-Sep-10 04:24N 48°51' W 123°30'0 0.0
2014-Sep-10 02:31N 48°51' W 123°30'0 0.0
2014-Sep-10 01:33N 48°51' W 123°30'0 0.0
2014-Sep-10 00:30N 48°51' W 123°30'0 0.0
2014-Sep-09 23:29N 48°51' W 123°30'0 0.0
2014-Sep-09 22:31N 48°51' W 123°30'0 0.0
2014-Sep-09 21:29N 48°51' W 123°30'0 0.0
2014-Sep-09 20:26N 48°51' W 123°30'0 0.0
2014-Sep-09 19:30N 48°51' W 123°30'0 0.0
2014-Sep-09 16:27N 48°51' W 123°30'0 0.0
2014-Sep-09 15:28N 48°51' W 123°30'0 0.0
2014-Sep-09 14:33N 48°51' W 123°30'0 0.0
2014-Sep-09 13:33N 48°51' W 123°30'0 0.0
2014-Sep-09 12:31N 48°51' W 123°30'0 0.0
2014-Sep-09 11:33N 48°51' W 123°30'0 0.0
2014-Sep-09 10:30N 48°51' W 123°30'0 0.0
2014-Sep-09 09:33N 48°51' W 123°30'0 0.0
2014-Sep-09 08:33N 48°51' W 123°30'0 0.0
2014-Sep-09 07:30N 48°51' W 123°30'0 0.0
2014-Sep-09 06:31N 48°51' W 123°30'0 0.0
2014-Sep-09 05:20N 48°51' W 123°30'0 0.0
2014-Sep-09 04:26N 48°51' W 123°30'0 0.0
2014-Sep-09 03:32N 48°51' W 123°30'0 0.0
2014-Sep-09 02:31N 48°51' W 123°30'0 0.0
2014-Sep-09 01:28N 48°51' W 123°30'0 0.0
2014-Sep-09 00:33N 48°51' W 123°30'0 0.0
2014-Sep-08 23:33N 48°51' W 123°30'0 0.0
2014-Sep-08 22:32N 48°51' W 123°30'0 0.0
2014-Sep-08 18:25N 48°51' W 123°30'0 0.0
2014-Sep-08 13:21N 48°51' W 123°30'0 0.0
2014-Sep-08 12:31N 48°51' W 123°30'0 0.0
2014-Sep-08 08:31N 48°51' W 123°30'0 0.0
2014-Sep-08 07:33N 48°51' W 123°30'0 0.0
2014-Sep-08 02:33N 48°51' W 123°30'0 0.0
2014-Sep-08 01:22N 48°51' W 123°30'0 0.0
2014-Sep-08 00:31N 48°51' W 123°30'6 6.4
2014-Sep-07 23:33N 48°47' W 123°23'9 7.4
2014-Sep-07 22:21N 48°48' W 123°36'5 1.0
2014-Sep-07 17:09N 48°51' W 123°30'0 0.0
2014-Sep-07 14:17N 48°51' W 123°30'0 0.0
2014-Sep-07 13:30N 48°51' W 123°30'0 0.0
2014-Sep-07 12:31N 48°51' W 123°30'  

Dump ship's entire track history